sensor_id;sensor_type;location;lat;lon;timestamp;temperature;humidity
9414;DHT22;4746;35.664;139.738;2023-05-07T00:00:29;21.90;99.90
9414;DHT22;4746;35.664;139.738;2023-05-07T00:02:57;21.90;99.90
9414;DHT22;4746;35.664;139.738;2023-05-07T00:05:24;21.90;99.90
9414;DHT22;4746;35.664;139.738;2023-05-07T00:07:52;22.00;99.90
9414;DHT22;4746;35.664;139.738;2023-05-07T00:10:22;22.00;99.90
9414;DHT22;4746;35.664;139.738;2023-05-07T00:12:49;22.00;99.90
9414;DHT22;4746;35.664;139.738;2023-05-07T00:15:17;22.10;99.90
9414;DHT22;4746;35.664;139.738;2023-05-07T00:17:45;22.10;99.90
9414;DHT22;4746;35.664;139.738;2023-05-07T00:20:12;22.10;99.90
9414;DHT22;4746;35.664;139.738;2023-05-07T00:22:40;22.10;99.90
9414;DHT22;4746;35.664;139.738;2023-05-07T00:25:12;22.20;99.90
9414;DHT22;4746;35.664;139.738;2023-05-07T00:27:39;22.20;99.90
9414;DHT22;4746;35.664;139.738;2023-05-07T00:30:07;22.20;99.90
9414;DHT22;4746;35.664;139.738;2023-05-07T00:32:35;22.20;99.90
9414;DHT22;4746;35.664;139.738;2023-05-07T00:35:04;22.20;99.90
9414;DHT22;4746;35.664;139.738;2023-05-07T00:37:32;22.20;99.90
9414;DHT22;4746;35.664;139.738;2023-05-07T00:40:00;22.20;99.90
9414;DHT22;4746;35.664;139.738;2023-05-07T00:42:31;22.20;99.90
9414;DHT22;4746;35.664;139.738;2023-05-07T00:44:58;22.20;99.90
9414;DHT22;4746;35.664;139.738;2023-05-07T00:47:26;22.20;99.90
9414;DHT22;4746;35.664;139.738;2023-05-07T00:50:00;22.20;99.90
9414;DHT22;4746;35.664;139.738;2023-05-07T00:52:28;22.20;99.90
9414;DHT22;4746;35.664;139.738;2023-05-07T00:54:56;22.30;99.90
9414;DHT22;4746;35.664;139.738;2023-05-07T00:57:24;22.30;99.90
9414;DHT22;4746;35.664;139.738;2023-05-07T00:59:52;22.30;99.90
9414;DHT22;4746;35.664;139.738;2023-05-07T01:02:20;22.30;99.90
9414;DHT22;4746;35.664;139.738;2023-05-07T01:04:47;22.30;99.90
9414;DHT22;4746;35.664;139.738;2023-05-07T01:07:15;22.30;99.90
9414;DHT22;4746;35.664;139.738;2023-05-07T01:09:43;22.30;99.90
9414;DHT22;4746;35.664;139.738;2023-05-07T01:12:11;22.30;99.90
9414;DHT22;4746;35.664;139.738;2023-05-07T01:14:39;22.30;99.90
9414;DHT22;4746;35.664;139.738;2023-05-07T01:17:07;22.30;99.90
9414;DHT22;4746;35.664;139.738;2023-05-07T01:19:35;22.30;99.90
9414;DHT22;4746;35.664;139.738;2023-05-07T01:22:09;22.40;99.90
9414;DHT22;4746;35.664;139.738;2023-05-07T01:24:38;22.40;99.90
9414;DHT22;4746;35.664;139.738;2023-05-07T01:27:08;22.40;99.90
9414;DHT22;4746;35.664;139.738;2023-05-07T01:29:35;22.40;99.90
9414;DHT22;4746;35.664;139.738;2023-05-07T01:32:03;22.40;99.90
9414;DHT22;4746;35.664;139.738;2023-05-07T01:34:33;22.50;99.90
9414;DHT22;4746;35.664;139.738;2023-05-07T01:37:03;22.50;99.90
9414;DHT22;4746;35.664;139.738;2023-05-07T01:39:32;22.60;99.90
9414;DHT22;4746;35.664;139.738;2023-05-07T01:42:00;22.60;99.90
9414;DHT22;4746;35.664;139.738;2023-05-07T01:44:28;22.70;99.90
9414;DHT22;4746;35.664;139.738;2023-05-07T01:46:57;22.80;99.90
9414;DHT22;4746;35.664;139.738;2023-05-07T01:49:25;22.80;99.90
9414;DHT22;4746;35.664;139.738;2023-05-07T01:51:54;22.90;99.90
9414;DHT22;4746;35.664;139.738;2023-05-07T01:54:26;23.00;99.90
9414;DHT22;4746;35.664;139.738;2023-05-07T01:56:57;23.10;99.90
9414;DHT22;4746;35.664;139.738;2023-05-07T01:59:26;23.20;99.90
9414;DHT22;4746;35.664;139.738;2023-05-07T02:01:53;23.30;99.90
9414;DHT22;4746;35.664;139.738;2023-05-07T02:04:21;23.40;99.90
9414;DHT22;4746;35.664;139.738;2023-05-07T02:06:48;23.40;99.90
9414;DHT22;4746;35.664;139.738;2023-05-07T02:09:16;23.40;99.90
9414;DHT22;4746;35.664;139.738;2023-05-07T02:11:44;23.40;99.90
9414;DHT22;4746;35.664;139.738;2023-05-07T02:14:11;23.40;99.90
9414;DHT22;4746;35.664;139.738;2023-05-07T02:16:39;23.40;99.90
9414;DHT22;4746;35.664;139.738;2023-05-07T02:19:06;23.40;99.90
9414;DHT22;4746;35.664;139.738;2023-05-07T02:21:34;23.50;99.90
9414;DHT22;4746;35.664;139.738;2023-05-07T02:24:01;23.50;99.90
9414;DHT22;4746;35.664;139.738;2023-05-07T02:26:29;23.50;99.90
9414;DHT22;4746;35.664;139.738;2023-05-07T02:28:56;23.40;99.90
9414;DHT22;4746;35.664;139.738;2023-05-07T02:31:24;23.40;99.90
9414;DHT22;4746;35.664;139.738;2023-05-07T02:33:51;23.40;99.90
9414;DHT22;4746;35.664;139.738;2023-05-07T02:36:19;23.40;99.90
9414;DHT22;4746;35.664;139.738;2023-05-07T02:38:46;23.30;99.90
9414;DHT22;4746;35.664;139.738;2023-05-07T02:41:14;23.20;99.90
9414;DHT22;4746;35.664;139.738;2023-05-07T02:43:41;23.30;99.90
9414;DHT22;4746;35.664;139.738;2023-05-07T02:46:09;23.30;99.90
9414;DHT22;4746;35.664;139.738;2023-05-07T02:48:37;23.40;99.90
9414;DHT22;4746;35.664;139.738;2023-05-07T02:51:05;23.40;99.90
9414;DHT22;4746;35.664;139.738;2023-05-07T02:53:33;23.40;99.90
9414;DHT22;4746;35.664;139.738;2023-05-07T02:56:01;23.40;99.90
9414;DHT22;4746;35.664;139.738;2023-05-07T02:58:29;23.40;99.90
9414;DHT22;4746;35.664;139.738;2023-05-07T03:00:56;23.40;99.90
9414;DHT22;4746;35.664;139.738;2023-05-07T03:03:25;23.30;99.90
9414;DHT22;4746;35.664;139.738;2023-05-07T03:05:52;23.20;99.90
9414;DHT22;4746;35.664;139.738;2023-05-07T03:08:20;23.10;99.90
9414;DHT22;4746;35.664;139.738;2023-05-07T03:10:48;23.10;99.90
9414;DHT22;4746;35.664;139.738;2023-05-07T03:13:15;23.10;99.90
9414;DHT22;4746;35.664;139.738;2023-05-07T03:15:43;23.00;99.90
9414;DHT22;4746;35.664;139.738;2023-05-07T03:18:16;23.00;99.90
9414;DHT22;4746;35.664;139.738;2023-05-07T03:20:43;23.00;99.90
9414;DHT22;4746;35.664;139.738;2023-05-07T03:23:11;22.90;99.90
9414;DHT22;4746;35.664;139.738;2023-05-07T03:25:38;22.80;99.90
9414;DHT22;4746;35.664;139.738;2023-05-07T03:28:06;22.80;99.90
9414;DHT22;4746;35.664;139.738;2023-05-07T03:30:33;22.80;99.90
9414;DHT22;4746;35.664;139.738;2023-05-07T03:33:01;22.80;99.90
9414;DHT22;4746;35.664;139.738;2023-05-07T03:35:28;22.80;99.90
9414;DHT22;4746;35.664;139.738;2023-05-07T03:37:56;22.80;99.90
9414;DHT22;4746;35.664;139.738;2023-05-07T03:40:23;22.80;99.90
9414;DHT22;4746;35.664;139.738;2023-05-07T03:42:51;22.80;99.90
9414;DHT22;4746;35.664;139.738;2023-05-07T03:45:18;22.90;99.90
9414;DHT22;4746;35.664;139.738;2023-05-07T03:47:46;22.90;99.90
9414;DHT22;4746;35.664;139.738;2023-05-07T03:50:13;22.90;99.90
9414;DHT22;4746;35.664;139.738;2023-05-07T03:52:41;22.90;99.90
9414;DHT22;4746;35.664;139.738;2023-05-07T03:55:09;22.90;99.90
9414;DHT22;4746;35.664;139.738;2023-05-07T03:57:36;22.90;99.90
9414;DHT22;4746;35.664;139.738;2023-05-07T04:00:04;22.90;99.90
9414;DHT22;4746;35.664;139.738;2023-05-07T04:02:33;22.90;99.90
9414;DHT22;4746;35.664;139.738;2023-05-07T04:05:01;22.80;99.90
9414;DHT22;4746;35.664;139.738;2023-05-07T04:07:28;22.80;99.90
9414;DHT22;4746;35.664;139.738;2023-05-07T04:10:03;22.80;99.90
9414;DHT22;4746;35.664;139.738;2023-05-07T04:12:31;22.80;99.90
9414;DHT22;4746;35.664;139.738;2023-05-07T04:14:59;22.80;99.90
9414;DHT22;4746;35.664;139.738;2023-05-07T04:17:26;22.80;99.90
9414;DHT22;4746;35.664;139.738;2023-05-07T04:19:54;22.80;99.90
9414;DHT22;4746;35.664;139.738;2023-05-07T04:22:21;22.90;99.90
9414;DHT22;4746;35.664;139.738;2023-05-07T04:24:49;22.90;99.90
9414;DHT22;4746;35.664;139.738;2023-05-07T04:27:17;23.00;99.90
9414;DHT22;4746;35.664;139.738;2023-05-07T04:29:45;23.00;99.90
9414;DHT22;4746;35.664;139.738;2023-05-07T04:32:13;23.00;99.90
9414;DHT22;4746;35.664;139.738;2023-05-07T04:34:41;23.10;99.90
9414;DHT22;4746;35.664;139.738;2023-05-07T04:37:09;23.20;99.90
9414;DHT22;4746;35.664;139.738;2023-05-07T04:39:36;23.30;99.90
9414;DHT22;4746;35.664;139.738;2023-05-07T04:42:04;23.20;99.90
9414;DHT22;4746;35.664;139.738;2023-05-07T04:44:35;23.30;99.90
9414;DHT22;4746;35.664;139.738;2023-05-07T04:47:03;23.30;99.90
9414;DHT22;4746;35.664;139.738;2023-05-07T04:49:31;23.40;99.90
9414;DHT22;4746;35.664;139.738;2023-05-07T04:51:58;23.20;99.90
9414;DHT22;4746;35.664;139.738;2023-05-07T04:54:25;22.80;99.90
9414;DHT22;4746;35.664;139.738;2023-05-07T04:56:53;22.40;99.90
9414;DHT22;4746;35.664;139.738;2023-05-07T04:59:21;22.10;99.90
9414;DHT22;4746;35.664;139.738;2023-05-07T05:01:48;21.90;99.90
9414;DHT22;4746;35.664;139.738;2023-05-07T05:04:16;21.70;99.90
9414;DHT22;4746;35.664;139.738;2023-05-07T05:06:43;21.60;99.90
9414;DHT22;4746;35.664;139.738;2023-05-07T05:09:11;21.60;99.90
9414;DHT22;4746;35.664;139.738;2023-05-07T05:11:39;21.40;99.90
9414;DHT22;4746;35.664;139.738;2023-05-07T05:14:06;21.10;99.90
9414;DHT22;4746;35.664;139.738;2023-05-07T05:16:34;20.80;99.90
9414;DHT22;4746;35.664;139.738;2023-05-07T05:19:02;20.80;99.90
9414;DHT22;4746;35.664;139.738;2023-05-07T05:21:32;20.60;99.90
9414;DHT22;4746;35.664;139.738;2023-05-07T05:23:59;20.50;99.90
9414;DHT22;4746;35.664;139.738;2023-05-07T05:26:27;20.40;99.90
9414;DHT22;4746;35.664;139.738;2023-05-07T05:28:54;20.30;99.90
9414;DHT22;4746;35.664;139.738;2023-05-07T05:31:22;20.10;99.90
9414;DHT22;4746;35.664;139.738;2023-05-07T05:33:49;19.80;99.90
9414;DHT22;4746;35.664;139.738;2023-05-07T05:36:17;19.60;99.90
9414;DHT22;4746;35.664;139.738;2023-05-07T05:38:44;19.50;99.90
9414;DHT22;4746;35.664;139.738;2023-05-07T05:41:12;19.40;99.90
9414;DHT22;4746;35.664;139.738;2023-05-07T05:43:39;19.30;99.90
9414;DHT22;4746;35.664;139.738;2023-05-07T05:46:07;19.10;99.90
9414;DHT22;4746;35.664;139.738;2023-05-07T05:48:37;18.90;99.90
9414;DHT22;4746;35.664;139.738;2023-05-07T05:51:04;18.90;99.90
9414;DHT22;4746;35.664;139.738;2023-05-07T05:53:32;18.80;99.90
9414;DHT22;4746;35.664;139.738;2023-05-07T05:56:01;18.70;99.90
9414;DHT22;4746;35.664;139.738;2023-05-07T05:58:29;18.50;99.90
9414;DHT22;4746;35.664;139.738;2023-05-07T06:00:56;18.40;99.90
9414;DHT22;4746;35.664;139.738;2023-05-07T06:03:24;18.40;99.90
9414;DHT22;4746;35.664;139.738;2023-05-07T06:05:52;18.30;99.90
9414;DHT22;4746;35.664;139.738;2023-05-07T06:08:19;18.20;99.90
9414;DHT22;4746;35.664;139.738;2023-05-07T06:10:47;18.10;99.90
9414;DHT22;4746;35.664;139.738;2023-05-07T06:13:15;18.00;99.90
9414;DHT22;4746;35.664;139.738;2023-05-07T06:15:42;17.80;99.90
9414;DHT22;4746;35.664;139.738;2023-05-07T06:18:09;17.80;99.90
9414;DHT22;4746;35.664;139.738;2023-05-07T06:20:37;17.80;99.90
9414;DHT22;4746;35.664;139.738;2023-05-07T06:23:04;17.70;99.90
9414;DHT22;4746;35.664;139.738;2023-05-07T06:25:32;17.70;99.90
9414;DHT22;4746;35.664;139.738;2023-05-07T06:27:59;17.70;99.90
9414;DHT22;4746;35.664;139.738;2023-05-07T06:30:27;17.60;99.90
9414;DHT22;4746;35.664;139.738;2023-05-07T06:32:54;17.50;99.90
9414;DHT22;4746;35.664;139.738;2023-05-07T06:35:22;17.50;99.90
9414;DHT22;4746;35.664;139.738;2023-05-07T06:37:49;17.40;99.90
9414;DHT22;4746;35.664;139.738;2023-05-07T06:40:17;17.40;99.90
9414;DHT22;4746;35.664;139.738;2023-05-07T06:42:44;17.40;99.90
9414;DHT22;4746;35.664;139.738;2023-05-07T06:45:12;17.40;99.90
9414;DHT22;4746;35.664;139.738;2023-05-07T06:47:40;17.40;99.90
9414;DHT22;4746;35.664;139.738;2023-05-07T06:50:08;17.40;99.90
9414;DHT22;4746;35.664;139.738;2023-05-07T06:52:36;17.50;99.90
9414;DHT22;4746;35.664;139.738;2023-05-07T06:55:04;17.50;99.90
9414;DHT22;4746;35.664;139.738;2023-05-07T06:57:32;17.50;99.90
9414;DHT22;4746;35.664;139.738;2023-05-07T06:59:59;17.40;99.90
9414;DHT22;4746;35.664;139.738;2023-05-07T07:02:27;17.40;99.90
9414;DHT22;4746;35.664;139.738;2023-05-07T07:04:54;17.30;99.90
9414;DHT22;4746;35.664;139.738;2023-05-07T07:07:22;17.30;99.90
9414;DHT22;4746;35.664;139.738;2023-05-07T07:09:49;17.20;99.90
9414;DHT22;4746;35.664;139.738;2023-05-07T07:12:17;17.10;99.90
9414;DHT22;4746;35.664;139.738;2023-05-07T07:14:46;17.10;99.90
9414;DHT22;4746;35.664;139.738;2023-05-07T07:17:13;17.10;99.90
9414;DHT22;4746;35.664;139.738;2023-05-07T07:19:41;17.10;99.90
9414;DHT22;4746;35.664;139.738;2023-05-07T07:22:08;17.10;99.90
9414;DHT22;4746;35.664;139.738;2023-05-07T07:24:36;17.10;99.90
9414;DHT22;4746;35.664;139.738;2023-05-07T07:27:03;17.00;99.90
9414;DHT22;4746;35.664;139.738;2023-05-07T07:29:31;17.10;99.90
9414;DHT22;4746;35.664;139.738;2023-05-07T07:31:58;17.10;99.90
9414;DHT22;4746;35.664;139.738;2023-05-07T07:34:26;17.10;99.90
9414;DHT22;4746;35.664;139.738;2023-05-07T07:36:53;17.00;99.90
9414;DHT22;4746;35.664;139.738;2023-05-07T07:39:21;17.00;99.90
9414;DHT22;4746;35.664;139.738;2023-05-07T07:41:49;17.00;99.90
9414;DHT22;4746;35.664;139.738;2023-05-07T07:44:16;16.90;99.90
9414;DHT22;4746;35.664;139.738;2023-05-07T07:46:44;16.90;99.90
9414;DHT22;4746;35.664;139.738;2023-05-07T07:49:11;16.80;99.90
9414;DHT22;4746;35.664;139.738;2023-05-07T07:51:39;16.90;99.90
9414;DHT22;4746;35.664;139.738;2023-05-07T07:54:06;16.90;99.90
9414;DHT22;4746;35.664;139.738;2023-05-07T07:56:34;16.90;99.90
9414;DHT22;4746;35.664;139.738;2023-05-07T07:59:04;16.90;99.90
9414;DHT22;4746;35.664;139.738;2023-05-07T08:01:32;16.90;99.90
9414;DHT22;4746;35.664;139.738;2023-05-07T08:03:59;16.80;99.90
9414;DHT22;4746;35.664;139.738;2023-05-07T08:06:29;16.80;99.90
9414;DHT22;4746;35.664;139.738;2023-05-07T08:08:57;16.80;99.90
9414;DHT22;4746;35.664;139.738;2023-05-07T08:11:24;16.80;99.90
9414;DHT22;4746;35.664;139.738;2023-05-07T08:13:52;16.80;99.90
9414;DHT22;4746;35.664;139.738;2023-05-07T08:16:20;16.80;99.90
9414;DHT22;4746;35.664;139.738;2023-05-07T08:18:48;16.80;99.90
9414;DHT22;4746;35.664;139.738;2023-05-07T08:21:15;16.80;99.90
9414;DHT22;4746;35.664;139.738;2023-05-07T08:23:43;16.60;99.90
9414;DHT22;4746;35.664;139.738;2023-05-07T08:26:11;16.50;99.90
9414;DHT22;4746;35.664;139.738;2023-05-07T08:28:39;16.50;99.90
9414;DHT22;4746;35.664;139.738;2023-05-07T08:31:06;16.60;99.90
9414;DHT22;4746;35.664;139.738;2023-05-07T08:33:34;16.60;99.90
9414;DHT22;4746;35.664;139.738;2023-05-07T08:36:01;16.50;99.90
9414;DHT22;4746;35.664;139.738;2023-05-07T08:38:29;16.50;99.90
9414;DHT22;4746;35.664;139.738;2023-05-07T08:40:56;16.50;99.90
9414;DHT22;4746;35.664;139.738;2023-05-07T08:43:27;16.40;99.90
9414;DHT22;4746;35.664;139.738;2023-05-07T08:45:55;16.30;99.90
9414;DHT22;4746;35.664;139.738;2023-05-07T08:48:29;16.30;99.90
9414;DHT22;4746;35.664;139.738;2023-05-07T08:50:59;16.20;99.90
9414;DHT22;4746;35.664;139.738;2023-05-07T08:53:27;16.30;99.90
9414;DHT22;4746;35.664;139.738;2023-05-07T08:55:55;16.30;99.90
9414;DHT22;4746;35.664;139.738;2023-05-07T08:58:23;16.20;99.90
9414;DHT22;4746;35.664;139.738;2023-05-07T09:00:53;16.20;99.90
9414;DHT22;4746;35.664;139.738;2023-05-07T09:03:21;16.20;99.90
9414;DHT22;4746;35.664;139.738;2023-05-07T09:05:48;16.10;99.90
9414;DHT22;4746;35.664;139.738;2023-05-07T09:08:19;16.10;99.90
9414;DHT22;4746;35.664;139.738;2023-05-07T09:11:02;16.10;99.90
9414;DHT22;4746;35.664;139.738;2023-05-07T09:13:30;16.10;99.90
9414;DHT22;4746;35.664;139.738;2023-05-07T09:16:09;16.10;99.90
9414;DHT22;4746;35.664;139.738;2023-05-07T09:18:43;15.90;99.90
9414;DHT22;4746;35.664;139.738;2023-05-07T09:21:17;15.80;99.90
9414;DHT22;4746;35.664;139.738;2023-05-07T09:23:45;15.80;99.90
9414;DHT22;4746;35.664;139.738;2023-05-07T09:26:12;15.80;99.90
9414;DHT22;4746;35.664;139.738;2023-05-07T09:28:42;15.80;99.90
9414;DHT22;4746;35.664;139.738;2023-05-07T09:31:11;15.80;99.90
9414;DHT22;4746;35.664;139.738;2023-05-07T09:33:39;15.80;99.90
9414;DHT22;4746;35.664;139.738;2023-05-07T09:36:08;15.70;99.90
9414;DHT22;4746;35.664;139.738;2023-05-07T09:38:37;15.70;99.90
9414;DHT22;4746;35.664;139.738;2023-05-07T09:41:12;15.80;99.90
9414;DHT22;4746;35.664;139.738;2023-05-07T09:43:40;15.70;99.90
9414;DHT22;4746;35.664;139.738;2023-05-07T09:46:12;15.70;99.90
9414;DHT22;4746;35.664;139.738;2023-05-07T09:48:44;15.60;99.90
9414;DHT22;4746;35.664;139.738;2023-05-07T09:51:33;15.70;99.90
9414;DHT22;4746;35.664;139.738;2023-05-07T09:54:08;15.70;99.90
9414;DHT22;4746;35.664;139.738;2023-05-07T09:56:37;15.60;99.90
9414;DHT22;4746;35.664;139.738;2023-05-07T09:59:10;15.40;99.90
9414;DHT22;4746;35.664;139.738;2023-05-07T10:01:42;15.40;99.90
9414;DHT22;4746;35.664;139.738;2023-05-07T10:04:11;15.30;99.90
9414;DHT22;4746;35.664;139.738;2023-05-07T10:06:39;15.20;99.90
9414;DHT22;4746;35.664;139.738;2023-05-07T10:09:08;15.20;99.90
9414;DHT22;4746;35.664;139.738;2023-05-07T10:11:36;15.20;99.90
9414;DHT22;4746;35.664;139.738;2023-05-07T10:14:04;15.20;99.90
9414;DHT22;4746;35.664;139.738;2023-05-07T10:16:34;15.20;99.90
9414;DHT22;4746;35.664;139.738;2023-05-07T10:19:04;15.20;99.90
9414;DHT22;4746;35.664;139.738;2023-05-07T10:21:44;15.20;99.90
9414;DHT22;4746;35.664;139.738;2023-05-07T10:24:26;15.20;99.90
9414;DHT22;4746;35.664;139.738;2023-05-07T10:27:00;15.20;99.90
9414;DHT22;4746;35.664;139.738;2023-05-07T10:35:30;15.00;99.90
9414;DHT22;4746;35.664;139.738;2023-05-07T10:38:03;15.00;99.90
9414;DHT22;4746;35.664;139.738;2023-05-07T10:40:32;15.10;99.90
9414;DHT22;4746;35.664;139.738;2023-05-07T10:43:02;15.10;99.90
9414;DHT22;4746;35.664;139.738;2023-05-07T10:45:31;15.10;99.90
9414;DHT22;4746;35.664;139.738;2023-05-07T10:50:44;15.00;99.90
9414;DHT22;4746;35.664;139.738;2023-05-07T10:55:48;15.00;99.90
9414;DHT22;4746;35.664;139.738;2023-05-07T11:00:49;14.90;99.90
9414;DHT22;4746;35.664;139.738;2023-05-07T11:03:17;14.90;99.90
9414;DHT22;4746;35.664;139.738;2023-05-07T11:05:45;14.90;99.90
9414;DHT22;4746;35.664;139.738;2023-05-07T11:08:13;14.90;99.90
9414;DHT22;4746;35.664;139.738;2023-05-07T11:10:57;14.90;99.90
9414;DHT22;4746;35.664;139.738;2023-05-07T11:13:44;15.00;99.90
9414;DHT22;4746;35.664;139.738;2023-05-07T11:16:23;15.00;99.90
9414;DHT22;4746;35.664;139.738;2023-05-07T11:18:55;15.00;99.90
9414;DHT22;4746;35.664;139.738;2023-05-07T11:24:06;15.00;99.90
9414;DHT22;4746;35.664;139.738;2023-05-07T11:26:48;14.90;99.90
9414;DHT22;4746;35.664;139.738;2023-05-07T11:29:20;15.00;99.90
9414;DHT22;4746;35.664;139.738;2023-05-07T11:31:53;15.00;99.90
9414;DHT22;4746;35.664;139.738;2023-05-07T11:34:26;15.00;99.90
9414;DHT22;4746;35.664;139.738;2023-05-07T11:36:54;14.90;99.90
9414;DHT22;4746;35.664;139.738;2023-05-07T11:39:27;14.90;99.90
9414;DHT22;4746;35.664;139.738;2023-05-07T11:41:56;15.00;99.90
9414;DHT22;4746;35.664;139.738;2023-05-07T11:44:24;15.00;99.90
9414;DHT22;4746;35.664;139.738;2023-05-07T11:46:51;15.00;99.90
9414;DHT22;4746;35.664;139.738;2023-05-07T11:49:19;14.90;99.90
9414;DHT22;4746;35.664;139.738;2023-05-07T11:51:47;15.00;99.90
9414;DHT22;4746;35.664;139.738;2023-05-07T11:54:16;15.00;99.90
9414;DHT22;4746;35.664;139.738;2023-05-07T11:56:44;15.00;99.90
9414;DHT22;4746;35.664;139.738;2023-05-07T11:59:16;15.10;99.90
9414;DHT22;4746;35.664;139.738;2023-05-07T12:01:47;15.10;99.90
9414;DHT22;4746;35.664;139.738;2023-05-07T12:04:19;15.20;99.90
9414;DHT22;4746;35.664;139.738;2023-05-07T12:06:47;15.20;99.90
9414;DHT22;4746;35.664;139.738;2023-05-07T12:09:17;15.30;99.90
9414;DHT22;4746;35.664;139.738;2023-05-07T12:11:46;15.30;99.90
9414;DHT22;4746;35.664;139.738;2023-05-07T12:14:14;15.30;99.90
9414;DHT22;4746;35.664;139.738;2023-05-07T12:16:46;15.30;99.90
9414;DHT22;4746;35.664;139.738;2023-05-07T12:19:14;15.30;99.90
9414;DHT22;4746;35.664;139.738;2023-05-07T12:21:41;15.30;99.90
9414;DHT22;4746;35.664;139.738;2023-05-07T12:24:09;15.30;99.90
9414;DHT22;4746;35.664;139.738;2023-05-07T12:26:40;15.20;99.90
9414;DHT22;4746;35.664;139.738;2023-05-07T12:29:08;15.40;99.90
9414;DHT22;4746;35.664;139.738;2023-05-07T12:31:35;15.50;99.90
9414;DHT22;4746;35.664;139.738;2023-05-07T12:34:03;15.40;99.90
9414;DHT22;4746;35.664;139.738;2023-05-07T12:36:40;15.50;99.90
9414;DHT22;4746;35.664;139.738;2023-05-07T12:39:08;15.50;99.90
9414;DHT22;4746;35.664;139.738;2023-05-07T12:41:55;15.60;99.90
9414;DHT22;4746;35.664;139.738;2023-05-07T12:44:31;15.70;99.90
9414;DHT22;4746;35.664;139.738;2023-05-07T12:47:02;15.70;99.90
9414;DHT22;4746;35.664;139.738;2023-05-07T12:49:30;15.70;99.90
9414;DHT22;4746;35.664;139.738;2023-05-07T12:51:58;15.70;99.90
9414;DHT22;4746;35.664;139.738;2023-05-07T12:54:31;15.90;99.90
9414;DHT22;4746;35.664;139.738;2023-05-07T12:57:07;15.90;99.90
9414;DHT22;4746;35.664;139.738;2023-05-07T12:59:40;15.90;99.90
9414;DHT22;4746;35.664;139.738;2023-05-07T13:02:09;16.00;99.90
9414;DHT22;4746;35.664;139.738;2023-05-07T13:04:36;16.10;99.90
9414;DHT22;4746;35.664;139.738;2023-05-07T13:07:04;16.10;99.90
9414;DHT22;4746;35.664;139.738;2023-05-07T13:09:31;16.10;99.90
9414;DHT22;4746;35.664;139.738;2023-05-07T13:11:59;16.10;99.90
9414;DHT22;4746;35.664;139.738;2023-05-07T13:14:27;16.10;99.90
9414;DHT22;4746;35.664;139.738;2023-05-07T13:16:55;16.30;99.90
9414;DHT22;4746;35.664;139.738;2023-05-07T13:19:22;16.30;99.90
9414;DHT22;4746;35.664;139.738;2023-05-07T13:21:49;16.20;99.90
9414;DHT22;4746;35.664;139.738;2023-05-07T13:24:18;15.90;99.90
9414;DHT22;4746;35.664;139.738;2023-05-07T13:26:46;15.80;99.90
9414;DHT22;4746;35.664;139.738;2023-05-07T13:29:14;15.70;99.90
9414;DHT22;4746;35.664;139.738;2023-05-07T13:31:43;15.60;99.90
9414;DHT22;4746;35.664;139.738;2023-05-07T13:34:10;15.60;99.90
9414;DHT22;4746;35.664;139.738;2023-05-07T13:36:38;15.60;99.90
9414;DHT22;4746;35.664;139.738;2023-05-07T13:39:08;15.50;99.90
9414;DHT22;4746;35.664;139.738;2023-05-07T13:41:35;15.60;99.90
9414;DHT22;4746;35.664;139.738;2023-05-07T13:44:03;15.80;99.90
9414;DHT22;4746;35.664;139.738;2023-05-07T13:46:30;15.80;99.90
9414;DHT22;4746;35.664;139.738;2023-05-07T13:48:58;15.80;99.90
9414;DHT22;4746;35.664;139.738;2023-05-07T13:51:26;15.90;99.90
9414;DHT22;4746;35.664;139.738;2023-05-07T13:53:53;15.90;99.90
9414;DHT22;4746;35.664;139.738;2023-05-07T13:56:20;16.00;99.90
9414;DHT22;4746;35.664;139.738;2023-05-07T13:58:52;16.00;99.90
9414;DHT22;4746;35.664;139.738;2023-05-07T14:01:19;16.00;99.90
9414;DHT22;4746;35.664;139.738;2023-05-07T14:03:47;16.00;99.90
9414;DHT22;4746;35.664;139.738;2023-05-07T14:06:14;16.10;99.90
9414;DHT22;4746;35.664;139.738;2023-05-07T14:08:41;16.10;99.90
9414;DHT22;4746;35.664;139.738;2023-05-07T14:11:09;16.10;99.90
9414;DHT22;4746;35.664;139.738;2023-05-07T14:13:36;16.10;99.90
9414;DHT22;4746;35.664;139.738;2023-05-07T14:16:05;16.10;99.90
9414;DHT22;4746;35.664;139.738;2023-05-07T14:18:32;16.20;99.90
9414;DHT22;4746;35.664;139.738;2023-05-07T14:21:02;16.20;99.90
9414;DHT22;4746;35.664;139.738;2023-05-07T14:23:32;16.20;99.90
9414;DHT22;4746;35.664;139.738;2023-05-07T14:25:59;16.20;99.90
9414;DHT22;4746;35.664;139.738;2023-05-07T14:28:27;16.10;99.90
9414;DHT22;4746;35.664;139.738;2023-05-07T14:30:54;16.10;99.90
9414;DHT22;4746;35.664;139.738;2023-05-07T14:33:22;16.10;99.90
9414;DHT22;4746;35.664;139.738;2023-05-07T14:35:49;16.10;99.90
9414;DHT22;4746;35.664;139.738;2023-05-07T14:38:17;16.00;99.90
9414;DHT22;4746;35.664;139.738;2023-05-07T14:40:45;16.00;99.90
9414;DHT22;4746;35.664;139.738;2023-05-07T14:43:13;16.00;99.90
9414;DHT22;4746;35.664;139.738;2023-05-07T14:45:41;16.00;99.90
9414;DHT22;4746;35.664;139.738;2023-05-07T14:48:09;15.90;99.90
9414;DHT22;4746;35.664;139.738;2023-05-07T14:50:42;15.90;99.90
9414;DHT22;4746;35.664;139.738;2023-05-07T14:53:09;15.70;99.90
9414;DHT22;4746;35.664;139.738;2023-05-07T14:55:37;15.60;99.90
9414;DHT22;4746;35.664;139.738;2023-05-07T14:58:05;15.40;99.90
9414;DHT22;4746;35.664;139.738;2023-05-07T15:00:39;15.40;99.90
9414;DHT22;4746;35.664;139.738;2023-05-07T15:03:08;15.50;99.90
9414;DHT22;4746;35.664;139.738;2023-05-07T15:05:38;15.40;99.90
9414;DHT22;4746;35.664;139.738;2023-05-07T15:08:06;15.40;99.90
9414;DHT22;4746;35.664;139.738;2023-05-07T15:10:39;15.30;99.90
9414;DHT22;4746;35.664;139.738;2023-05-07T15:13:08;15.30;99.90
9414;DHT22;4746;35.664;139.738;2023-05-07T15:15:36;15.30;99.90
9414;DHT22;4746;35.664;139.738;2023-05-07T15:18:05;15.20;99.90
9414;DHT22;4746;35.664;139.738;2023-05-07T15:20:33;15.20;99.90
9414;DHT22;4746;35.664;139.738;2023-05-07T15:23:00;15.20;99.90
9414;DHT22;4746;35.664;139.738;2023-05-07T15:25:29;15.20;99.90
9414;DHT22;4746;35.664;139.738;2023-05-07T15:27:57;15.10;99.90
9414;DHT22;4746;35.664;139.738;2023-05-07T15:30:24;15.10;99.90
9414;DHT22;4746;35.664;139.738;2023-05-07T15:32:53;15.00;99.90
9414;DHT22;4746;35.664;139.738;2023-05-07T15:35:20;15.00;99.90
9414;DHT22;4746;35.664;139.738;2023-05-07T15:37:49;15.00;99.90
9414;DHT22;4746;35.664;139.738;2023-05-07T15:40:17;14.90;99.90
9414;DHT22;4746;35.664;139.738;2023-05-07T15:42:45;14.90;99.90
9414;DHT22;4746;35.664;139.738;2023-05-07T15:45:13;14.80;99.90
9414;DHT22;4746;35.664;139.738;2023-05-07T15:48:07;14.80;99.90
9414;DHT22;4746;35.664;139.738;2023-05-07T15:50:35;14.60;99.90
9414;DHT22;4746;35.664;139.738;2023-05-07T15:53:04;14.50;99.90
9414;DHT22;4746;35.664;139.738;2023-05-07T15:55:32;14.40;99.90